createdAt,value
2019-01-30T00:00:33.925Z,13.50
2019-01-30T00:03:07.671Z,13.63
2019-01-30T00:05:41.422Z,14.67
2019-01-30T00:08:22.342Z,14.73
2019-01-30T00:11:06.942Z,13.80
2019-01-30T00:13:40.622Z,15.17
2019-01-30T00:16:19.093Z,14.33
2019-01-30T00:18:52.760Z,15.00
2019-01-30T00:21:28.474Z,12.93
2019-01-30T00:24:07.676Z,13.77
2019-01-30T00:26:41.371Z,14.60
2019-01-30T00:29:15.089Z,14.03
2019-01-30T00:31:48.749Z,14.67
2019-01-30T00:34:22.369Z,14.70
2019-01-30T00:36:59.501Z,15.17
2019-01-30T00:39:39.110Z,15.53
2019-01-30T00:42:12.804Z,14.87
2019-01-30T00:44:46.485Z,16.03
2019-01-30T00:47:20.238Z,15.23
2019-01-30T00:49:53.905Z,15.13
2019-01-30T00:52:27.678Z,15.07
2019-01-30T00:55:14.359Z,15.13
2019-01-30T00:57:48.267Z,16.90
2019-01-30T01:00:24.373Z,14.47
2019-01-30T01:03:04.407Z,16.97
2019-01-30T01:05:38.169Z,14.50
2019-01-30T01:08:12.034Z,15.07
2019-01-30T01:10:55.135Z,17.03
2019-01-30T01:13:33.609Z,15.13
2019-01-30T01:16:07.354Z,15.20
2019-01-30T01:18:41.062Z,16.23
2019-01-30T01:21:20.929Z,16.83
2019-01-30T01:23:58.326Z,16.07
2019-01-30T01:26:31.997Z,16.40
2019-01-30T01:29:05.802Z,16.00
2019-01-30T01:31:39.340Z,15.90
2019-01-30T01:34:13.038Z,16.47
2019-01-30T01:36:58.713Z,16.47
2019-01-30T01:39:35.758Z,15.93
2019-01-30T01:42:09.419Z,17.73
2019-01-30T01:44:43.125Z,16.07
2019-01-30T01:47:16.728Z,17.13
2019-01-30T01:49:50.676Z,16.17
2019-01-30T01:52:24.390Z,15.87
2019-01-30T01:55:12.417Z,16.63
2019-01-30T01:57:46.086Z,14.97
2019-01-30T02:00:24.070Z,16.57
2019-01-30T02:02:57.685Z,16.83
2019-01-30T02:05:31.390Z,16.33
2019-01-30T02:08:05.235Z,16.57
2019-01-30T02:10:38.853Z,17.20
2019-01-30T02:13:12.541Z,15.90
2019-01-30T02:15:57.264Z,15.83
2019-01-30T02:18:30.947Z,16.77
2019-01-30T02:21:12.033Z,16.43
2019-01-30T02:23:45.682Z,17.33
2019-01-30T02:26:19.262Z,16.77
2019-01-30T02:28:52.851Z,16.50
2019-01-30T02:31:26.476Z,18.97
2019-01-30T02:34:00.202Z,19.00
2019-01-30T02:36:58.456Z,18.93
2019-01-30T02:39:32.102Z,18.37
2019-01-30T02:42:11.914Z,18.93
2019-01-30T02:44:58.344Z,17.33
2019-01-30T02:47:32.030Z,20.93
2019-01-30T02:50:08.916Z,19.30
2019-01-30T02:52:42.626Z,17.87
2019-01-30T02:55:18.299Z,17.87
2019-01-30T02:57:51.959Z,17.23
2019-01-30T03:00:38.321Z,20.17
2019-01-30T03:03:12.052Z,18.27
2019-01-30T03:05:48.922Z,16.70
2019-01-30T03:08:22.617Z,18.47
2019-01-30T03:10:56.243Z,17.43
2019-01-30T03:14:00.171Z,17.37
2019-01-30T03:16:33.816Z,17.90
2019-01-30T03:19:25.820Z,18.17
2019-01-30T03:21:59.501Z,17.10
2019-01-30T03:24:33.098Z,18.10
2019-01-30T03:27:07.850Z,17.97
2019-01-30T03:29:41.593Z,16.67
2019-01-30T03:32:15.222Z,16.17
2019-01-30T03:34:49.063Z,17.57
2019-01-30T03:37:22.747Z,16.43
2019-01-30T03:40:02.090Z,17.33
2019-01-30T03:42:35.831Z,17.07
2019-01-30T03:45:12.406Z,16.50
2019-01-30T03:47:51.562Z,17.20
2019-01-30T03:50:25.176Z,17.27
2019-01-30T03:53:03.701Z,15.17
2019-01-30T03:56:01.358Z,16.70
2019-01-30T03:58:34.970Z,16.20
2019-01-30T04:01:08.735Z,15.10
2019-01-30T04:03:42.404Z,15.47
2019-01-30T04:06:16.110Z,14.23
2019-01-30T04:08:49.707Z,15.20
2019-01-30T04:11:23.841Z,14.53
2019-01-30T04:13:57.439Z,15.53
2019-01-30T04:16:31.061Z,13.90
2019-01-30T04:19:08.513Z,14.70
2019-01-30T04:21:42.207Z,12.90
2019-01-30T04:24:21.491Z,14.40
2019-01-30T04:26:55.183Z,14.27
2019-01-30T04:29:36.156Z,14.13
2019-01-30T04:32:09.807Z,14.80
2019-01-30T04:34:43.503Z,15.57
2019-01-30T04:37:24.885Z,14.17
2019-01-30T04:40:09.603Z,14.43
2019-01-30T04:42:43.242Z,13.33
2019-01-30T04:45:22.622Z,13.97
2019-01-30T04:47:56.235Z,13.83
2019-01-30T04:50:29.932Z,13.67
2019-01-30T04:53:03.539Z,14.17
2019-01-30T04:55:37.184Z,12.90
2019-01-30T04:58:26.257Z,14.20
2019-01-30T05:01:07.419Z,13.43
2019-01-30T05:03:41.075Z,14.87
2019-01-30T05:06:14.850Z,13.77
2019-01-30T05:08:52.326Z,15.57
2019-01-30T05:11:26.017Z,13.87
2019-01-30T05:14:01.441Z,14.17
2019-01-30T05:16:34.989Z,14.40
2019-01-30T05:19:08.697Z,14.77
2019-01-30T05:21:42.377Z,14.13
2019-01-30T05:24:28.185Z,13.83
2019-01-30T05:27:01.848Z,15.97
2019-01-30T05:29:35.532Z,15.17
2019-01-30T05:32:21.443Z,14.83
2019-01-30T05:34:55.066Z,15.03
2019-01-30T05:37:28.697Z,14.10
2019-01-30T05:40:02.362Z,16.40
2019-01-30T05:42:35.997Z,15.57
2019-01-30T05:45:12.674Z,17.10
2019-01-30T05:47:58.553Z,16.77
2019-01-30T05:50:32.213Z,15.13
2019-01-30T05:53:24.071Z,16.30
2019-01-30T05:55:57.771Z,16.27
2019-01-30T05:58:31.705Z,15.10
2019-01-30T06:01:29.593Z,15.00
2019-01-30T06:04:27.882Z,14.47
2019-01-30T06:07:01.523Z,17.60
2019-01-30T06:09:35.150Z,15.00
2019-01-30T06:12:16.097Z,14.93
2019-01-30T06:14:49.802Z,16.13
2019-01-30T06:17:23.457Z,14.27
2019-01-30T06:19:57.168Z,14.67
2019-01-30T06:22:46.169Z,14.63
2019-01-30T06:25:19.919Z,13.43
2019-01-30T06:27:54.681Z,15.97
2019-01-30T06:30:40.246Z,13.07
2019-01-30T06:33:13.823Z,15.20
2019-01-30T06:35:50.604Z,13.07
2019-01-30T06:38:30.431Z,11.70
2019-01-30T06:41:04.184Z,11.87
2019-01-30T06:43:38.445Z,14.17
2019-01-30T06:46:14.073Z,14.47
2019-01-30T06:48:47.788Z,13.10
2019-01-30T06:51:27.312Z,15.60
2019-01-30T06:54:19.010Z,14.47
2019-01-30T06:56:52.646Z,13.93
2019-01-30T06:59:28.205Z,11.57
2019-01-30T07:02:05.678Z,15.33
2019-01-30T07:04:39.290Z,14.80
2019-01-30T07:07:14.999Z,13.53
2019-01-30T07:09:56.901Z,12.20
2019-01-30T07:12:30.657Z,12.00
2019-01-30T07:15:11.422Z,13.60
2019-01-30T07:17:45.195Z,13.70
2019-01-30T07:20:18.978Z,13.27
2019-01-30T07:22:52.763Z,13.70
2019-01-30T07:25:36.913Z,14.87
2019-01-30T07:28:10.650Z,14.87
2019-01-30T07:30:46.427Z,13.60
2019-01-30T07:33:20.129Z,12.07
2019-01-30T07:35:59.732Z,13.33
2019-01-30T07:38:33.432Z,9.77
2019-01-30T07:41:07.179Z,14.77
2019-01-30T07:43:40.804Z,12.60
2019-01-30T07:46:14.403Z,13.93
2019-01-30T07:48:54.518Z,10.33
2019-01-30T07:51:28.253Z,12.17
2019-01-30T07:54:13.077Z,12.23
2019-01-30T07:56:46.736Z,10.23
2019-01-30T07:59:27.572Z,12.23
2019-01-30T08:02:01.282Z,12.07
2019-01-30T08:04:38.225Z,14.20
2019-01-30T08:07:11.920Z,12.50
2019-01-30T08:09:45.603Z,11.70
2019-01-30T08:12:19.300Z,10.33
2019-01-30T08:14:52.956Z,12.90
2019-01-30T08:17:40.158Z,12.03
2019-01-30T08:20:16.321Z,9.27
2019-01-30T08:22:50.413Z,10.67
2019-01-30T08:25:24.995Z,12.63
2019-01-30T08:27:58.771Z,10.03
2019-01-30T08:30:32.703Z,12.50
2019-01-30T08:33:15.278Z,12.17
2019-01-30T08:35:48.983Z,11.57
2019-01-30T08:38:22.680Z,11.67
2019-01-30T08:40:56.290Z,11.03
2019-01-30T08:43:30.036Z,10.93
2019-01-30T08:46:07.626Z,11.43
2019-01-30T08:48:41.355Z,11.43
2019-01-30T08:51:15.121Z,10.67
2019-01-30T08:53:48.751Z,11.17
2019-01-30T08:56:22.438Z,10.90
2019-01-30T08:58:56.096Z,10.47
2019-01-30T09:01:36.263Z,10.33
2019-01-30T09:04:11.369Z,10.17
2019-01-30T09:06:45.173Z,9.90
2019-01-30T09:09:30.938Z,9.23
2019-01-30T09:12:04.899Z,9.53
2019-01-30T09:14:38.545Z,9.07
2019-01-30T09:17:12.567Z,10.30
2019-01-30T09:20:02.350Z,9.60
2019-01-30T09:22:35.950Z,9.40
2019-01-30T09:25:12.775Z,8.93
2019-01-30T09:27:46.532Z,9.43
2019-01-30T09:30:29.033Z,9.57
2019-01-30T09:33:02.783Z,9.20
2019-01-30T09:35:36.513Z,8.87
2019-01-30T09:38:15.275Z,9.37
2019-01-30T09:40:49.026Z,7.33
2019-01-30T09:43:22.663Z,8.70
2019-01-30T09:45:56.283Z,7.13
2019-01-30T09:48:29.974Z,9.00
2019-01-30T09:51:16.703Z,7.63
2019-01-30T09:53:50.487Z,7.60
2019-01-30T09:56:28.867Z,8.53
2019-01-30T09:59:02.795Z,7.10
2019-01-30T10:01:40.106Z,7.07
2019-01-30T10:04:13.720Z,7.07
2019-01-30T10:06:47.386Z,7.17
2019-01-30T10:09:25.837Z,8.10
2019-01-30T10:12:04.820Z,6.37
2019-01-30T10:14:38.582Z,7.60
2019-01-30T10:17:12.292Z,8.27
2019-01-30T10:19:48.898Z,6.83
2019-01-30T10:22:28.523Z,7.43
2019-01-30T10:25:02.222Z,6.57
2019-01-30T10:27:35.898Z,7.27
2019-01-30T10:30:15.554Z,5.60
2019-01-30T10:32:49.226Z,6.67
2019-01-30T10:35:27.780Z,5.93
2019-01-30T10:38:01.537Z,6.87
2019-01-30T10:40:35.312Z,6.10
2019-01-30T10:43:09.070Z,5.53
2019-01-30T10:45:52.752Z,6.67
2019-01-30T10:48:29.454Z,6.50
2019-01-30T10:51:07.319Z,5.60
2019-01-30T10:53:41.237Z,5.97
2019-01-30T10:56:16.494Z,5.90
2019-01-30T10:58:50.502Z,5.30
2019-01-30T11:01:29.489Z,5.73
2019-01-30T11:04:03.325Z,5.67
2019-01-30T11:06:36.921Z,5.93
2019-01-30T11:09:11.067Z,5.73
2019-01-30T11:11:44.658Z,4.87
2019-01-30T11:14:27.346Z,36.37
2019-01-30T11:17:01.117Z,31.20
2019-01-30T11:19:34.863Z,10.23
2019-01-30T11:22:18.039Z,6.87
2019-01-30T11:24:55.754Z,5.70
2019-01-30T11:27:29.013Z,5.17
2019-01-30T11:30:08.736Z,4.10
2019-01-30T11:32:42.481Z,4.50
2019-01-30T11:35:19.735Z,5.50
2019-01-30T11:37:53.390Z,5.10
2019-01-30T11:40:27.630Z,5.20
2019-01-30T11:43:01.271Z,4.17
2019-01-30T11:45:43.126Z,4.53
2019-01-30T11:48:16.778Z,4.23
2019-01-30T11:50:55.383Z,2.67
2019-01-30T11:53:30.170Z,4.63
2019-01-30T11:56:06.053Z,3.30
2019-01-30T11:58:39.776Z,3.60
2019-01-30T12:01:14.432Z,3.20
2019-01-30T12:03:53.596Z,3.40
2019-01-30T12:06:30.245Z,2.93
2019-01-30T12:09:05.542Z,2.90
2019-01-30T12:11:39.124Z,3.03
2019-01-30T12:14:17.489Z,2.90
2019-01-30T12:16:51.105Z,2.47
2019-01-30T12:19:24.763Z,2.83
2019-01-30T12:22:03.574Z,2.57
2019-01-30T12:24:37.166Z,3.10
2019-01-30T12:27:10.859Z,2.57
2019-01-30T12:29:50.897Z,2.57
2019-01-30T12:32:29.967Z,2.33
2019-01-30T12:35:04.500Z,2.10
2019-01-30T12:37:38.263Z,3.03
2019-01-30T12:40:17.632Z,2.60
2019-01-30T12:42:55.052Z,1.80
2019-01-30T12:45:38.728Z,2.27
2019-01-30T12:48:12.928Z,2.83
2019-01-30T12:50:56.670Z,3.23
2019-01-30T12:53:30.372Z,3.80
2019-01-30T12:56:04.096Z,4.03
2019-01-30T12:58:37.792Z,3.37
2019-01-30T13:01:11.441Z,3.70
2019-01-30T13:03:45.076Z,3.00
2019-01-30T13:06:18.852Z,4.13
2019-01-30T13:08:52.558Z,4.07
2019-01-30T13:11:26.232Z,4.47
2019-01-30T13:13:59.917Z,3.50
2019-01-30T13:16:33.583Z,3.57
2019-01-30T13:19:07.317Z,4.00
2019-01-30T13:21:41.002Z,3.57
2019-01-30T13:24:14.632Z,3.90
2019-01-30T13:27:05.203Z,3.23
2019-01-30T13:29:38.819Z,2.83
2019-01-30T13:32:12.538Z,4.07
2019-01-30T13:34:55.749Z,3.10
2019-01-30T13:37:29.680Z,3.63
2019-01-30T13:40:04.736Z,4.00
2019-01-30T13:42:38.405Z,4.80
2019-01-30T13:45:13.160Z,4.20
2019-01-30T13:47:47.354Z,5.03
2019-01-30T13:50:23.767Z,3.77
2019-01-30T13:52:57.589Z,4.40
2019-01-30T13:55:31.345Z,4.53
2019-01-30T13:58:08.834Z,4.37
2019-01-30T14:00:42.926Z,4.80
2019-01-30T14:03:17.038Z,3.43
2019-01-30T14:05:50.797Z,3.63
2019-01-30T14:08:24.375Z,5.10
2019-01-30T14:11:04.170Z,3.73
2019-01-30T14:13:37.747Z,4.87
2019-01-30T14:16:17.490Z,4.97
2019-01-30T14:18:51.213Z,3.53
2019-01-30T14:21:25.353Z,5.47
2019-01-30T14:24:02.088Z,4.90
2019-01-30T14:26:35.864Z,4.20
2019-01-30T14:29:21.392Z,3.60
2019-01-30T14:31:54.992Z,5.00
2019-01-30T14:34:28.583Z,3.60
2019-01-30T14:37:02.252Z,5.33
2019-01-30T14:39:41.539Z,4.57
2019-01-30T14:42:15.238Z,3.07
2019-01-30T14:44:48.793Z,2.60
2019-01-30T14:47:22.543Z,3.93
2019-01-30T14:49:56.122Z,5.43
2019-01-30T14:52:29.742Z,4.40
2019-01-30T14:55:04.122Z,4.20
2019-01-30T14:57:37.819Z,3.37
2019-01-30T15:00:14.847Z,4.83
2019-01-30T15:02:48.617Z,3.83
2019-01-30T15:05:22.994Z,4.27
2019-01-30T15:07:56.833Z,3.37
2019-01-30T15:10:31.063Z,4.63
2019-01-30T15:13:07.808Z,4.70
2019-01-30T15:15:44.126Z,4.53
2019-01-30T15:18:16.952Z,5.53
2019-01-30T15:20:53.974Z,5.37
2019-01-30T15:23:27.650Z,4.97
2019-01-30T15:26:01.334Z,3.47
2019-01-30T15:28:34.924Z,4.40
2019-01-30T15:31:08.687Z,3.80
2019-01-30T15:33:42.372Z,4.33
2019-01-30T15:36:20.082Z,3.80
2019-01-30T15:38:56.816Z,5.63
2019-01-30T15:41:42.934Z,4.77
2019-01-30T15:44:16.631Z,4.37
2019-01-30T15:47:02.327Z,4.13
2019-01-30T15:49:47.937Z,3.30
2019-01-30T15:52:31.436Z,3.87
2019-01-30T15:55:07.590Z,4.63
2019-01-30T15:57:50.091Z,3.47
2019-01-30T16:00:39.999Z,3.97
2019-01-30T16:03:13.701Z,5.23
2019-01-30T16:05:46.944Z,2.97
2019-01-30T16:08:20.712Z,3.77
2019-01-30T16:10:54.479Z,3.80
2019-01-30T16:13:28.122Z,3.80
2019-01-30T16:16:03.767Z,3.90
2019-01-30T16:18:37.410Z,3.47
2019-01-30T16:21:11.099Z,5.03
2019-01-30T16:23:44.865Z,3.77
2019-01-30T16:26:27.168Z,4.07
2019-01-30T16:29:00.858Z,4.33
2019-01-30T16:31:34.445Z,3.97
2019-01-30T16:34:11.154Z,3.40
2019-01-30T16:36:45.094Z,3.33
2019-01-30T16:39:18.719Z,3.67
2019-01-30T16:41:52.315Z,4.30
2019-01-30T16:44:41.125Z,3.43
2019-01-30T16:47:14.752Z,2.87
2019-01-30T16:49:48.406Z,2.73
2019-01-30T16:52:22.009Z,3.13
2019-01-30T16:55:06.253Z,3.80
2019-01-30T16:57:40.029Z,3.47
2019-01-30T17:00:16.699Z,3.77
2019-01-30T17:02:50.494Z,3.67
2019-01-30T17:05:24.420Z,2.40
2019-01-30T17:07:58.091Z,3.77
2019-01-30T17:10:31.754Z,2.33
2019-01-30T17:13:16.347Z,3.47
2019-01-30T17:15:50.004Z,3.60
2019-01-30T17:18:24.344Z,3.03
2019-01-30T17:21:04.289Z,4.20
2019-01-30T17:23:38.061Z,3.00
2019-01-30T17:26:11.799Z,3.17
2019-01-30T17:28:47.503Z,4.07
2019-01-30T17:31:24.517Z,3.97
2019-01-30T17:33:58.191Z,3.07
2019-01-30T17:36:31.778Z,3.13
2019-01-30T17:39:07.993Z,3.57
2019-01-30T17:41:41.763Z,3.60
2019-01-30T17:44:15.664Z,3.30
2019-01-30T17:46:52.739Z,3.33
2019-01-30T17:49:26.323Z,4.30
2019-01-30T17:52:00.009Z,3.20
2019-01-30T17:54:36.727Z,4.17
2019-01-30T17:57:10.506Z,2.97
2019-01-30T17:59:44.119Z,3.53
2019-01-30T18:02:17.815Z,4.27
2019-01-30T18:04:51.471Z,4.57
2019-01-30T18:07:25.167Z,4.13
2019-01-30T18:10:26.252Z,4.43
2019-01-30T18:13:04.867Z,5.07
2019-01-30T18:15:38.619Z,4.80
2019-01-30T18:18:15.773Z,3.80
2019-01-30T18:20:49.601Z,6.27
2019-01-30T18:23:23.230Z,5.37
2019-01-30T18:25:56.880Z,4.97
2019-01-30T18:28:30.494Z,4.67
2019-01-30T18:31:04.655Z,4.97
2019-01-30T18:33:50.167Z,4.60
2019-01-30T18:36:23.920Z,3.93
2019-01-30T18:38:57.551Z,6.07
2019-01-30T18:41:38.852Z,5.90
2019-01-30T18:44:12.462Z,4.30
2019-01-30T18:46:49.280Z,5.90
2019-01-30T18:49:23.104Z,5.00
2019-01-30T18:51:56.804Z,4.57
2019-01-30T18:54:32.272Z,4.43
2019-01-30T18:57:12.718Z,4.30
2019-01-30T18:59:46.459Z,5.43
2019-01-30T19:02:27.005Z,5.53
2019-01-30T19:05:00.625Z,4.67
2019-01-30T19:07:34.287Z,4.23
2019-01-30T19:10:18.042Z,4.57
2019-01-30T19:12:51.686Z,5.87
2019-01-30T19:15:29.275Z,4.90
2019-01-30T19:18:02.998Z,6.33
2019-01-30T19:20:41.438Z,5.57
2019-01-30T19:23:15.212Z,6.53
2019-01-30T19:25:48.788Z,5.57
2019-01-30T19:28:27.467Z,6.80
2019-01-30T19:31:01.059Z,6.60
2019-01-30T19:33:38.424Z,5.30
2019-01-30T19:36:12.086Z,5.57
2019-01-30T19:38:45.767Z,4.27
2019-01-30T19:41:19.363Z,4.83
2019-01-30T19:44:00.878Z,7.23
2019-01-30T19:46:34.536Z,6.57
2019-01-30T19:49:16.391Z,5.77
2019-01-30T19:51:50.047Z,5.67
2019-01-30T19:54:25.651Z,5.80
2019-01-30T19:56:59.238Z,7.13
2019-01-30T19:59:37.493Z,6.60
2019-01-30T20:02:13.230Z,5.93
2019-01-30T20:04:46.850Z,5.70
2019-01-30T20:07:23.629Z,7.37
2019-01-30T20:09:57.394Z,5.90
2019-01-30T20:12:31.061Z,6.57
2019-01-30T20:15:10.480Z,5.67
2019-01-30T20:17:48.646Z,6.97
2019-01-30T20:20:22.379Z,7.00
2019-01-30T20:22:56.136Z,7.83
2019-01-30T20:25:35.412Z,7.93
2019-01-30T20:28:10.159Z,6.10
2019-01-30T20:30:43.790Z,7.60
2019-01-30T20:33:35.546Z,7.40
2019-01-30T20:36:09.263Z,5.63
2019-01-30T20:38:42.955Z,7.20
2019-01-30T20:41:16.597Z,7.00
2019-01-30T20:43:51.175Z,8.00
2019-01-30T20:46:25.775Z,6.27
2019-01-30T20:49:02.525Z,7.00
2019-01-30T20:51:37.245Z,6.97
2019-01-30T20:54:45.370Z,6.97
2019-01-30T20:57:19.116Z,5.73
2019-01-30T21:03:04.042Z,5.90
2019-01-30T21:05:37.688Z,8.00
2019-01-30T21:08:11.453Z,6.50
2019-01-30T21:10:45.056Z,6.40
2019-01-30T21:13:18.986Z,5.97
2019-01-30T21:15:52.736Z,6.53
2019-01-30T21:18:26.433Z,7.30
2019-01-30T21:21:00.028Z,6.53
2019-01-30T21:23:45.737Z,6.40
2019-01-30T21:26:19.391Z,5.73
2019-01-30T21:28:59.178Z,7.00
2019-01-30T21:31:32.759Z,7.30
2019-01-30T21:34:06.510Z,7.77
2019-01-30T21:37:10.776Z,7.20
2019-01-30T21:39:44.426Z,5.47
2019-01-30T21:42:24.018Z,7.20
2019-01-30T21:44:57.645Z,6.97
2019-01-30T21:47:59.399Z,6.53
2019-01-30T21:50:39.593Z,6.80
2019-01-30T21:53:13.239Z,4.20
2019-01-30T21:55:58.981Z,7.37
2019-01-30T21:59:03.950Z,5.40
2019-01-30T22:01:37.650Z,6.07
2019-01-30T22:04:11.302Z,7.90
2019-01-30T22:07:00.838Z,6.70
2019-01-30T22:09:35.441Z,7.03
2019-01-30T22:12:12.050Z,8.63
2019-01-30T22:14:45.781Z,7.73
2019-01-30T22:17:19.434Z,8.03
2019-01-30T22:19:53.012Z,7.53
2019-01-30T22:22:36.091Z,5.13
2019-01-30T22:25:19.964Z,7.37
2019-01-30T22:27:47.768Z,8.57
2019-01-30T22:30:23.867Z,10.20
2019-01-30T22:32:57.963Z,8.17
2019-01-30T22:35:31.625Z,8.33
2019-01-30T22:38:12.284Z,7.00
2019-01-30T22:40:40.652Z,8.50
2019-01-30T22:43:14.724Z,7.00
2019-01-30T22:45:58.827Z,7.90
2019-01-30T22:48:32.484Z,9.67
2019-01-30T22:51:06.218Z,8.80
2019-01-30T22:53:47.143Z,8.60
2019-01-30T22:56:24.667Z,11.03
2019-01-30T22:58:58.328Z,10.63
2019-01-30T23:01:38.016Z,5.70
2019-01-30T23:04:12.874Z,9.57
2019-01-30T23:06:49.572Z,8.53
2019-01-30T23:09:45.566Z,8.90
2019-01-30T23:15:39.217Z,10.60
2019-01-30T23:18:34.544Z,9.30
2019-01-30T23:21:49.828Z,11.67
2019-01-30T23:25:00.309Z,10.07
2019-01-30T23:27:39.208Z,11.67
2019-01-30T23:34:21.655Z,11.90
2019-01-30T23:37:22.926Z,11.30
2019-01-30T23:40:11.658Z,13.43
2019-01-30T23:43:21.367Z,10.83
2019-01-30T23:45:58.332Z,9.30
2019-01-30T23:49:27.220Z,12.40
2019-01-30T23:56:22.578Z,14.00
2019-01-30T23:59:32.716Z,12.17
